Time;durP1;ratioP1;P1;durP2;ratioP2;P2;SDS_P1;SDS_P2;PMS_P1;PMS_P2;Temp;Humidity;BMP_temperature;BMP_pressure;BME280_temperature;BME280_humidity;BME280_pressure;Samples;Min_cycle;Max_cycle;Signal;HPM_P1;HPM_P2
2022/01/03 00:01:17;;;;;;;106.80;73.28;;;6.20;99.90;;;;;;5052549;28;20025;-79
2022/01/03 00:03:43;;;;;;;136.23;94.40;;;6.20;99.90;;;;;;5054303;28;20376;-79
2022/01/03 00:06:10;;;;;;;143.10;96.05;;;6.20;99.90;;;;;;5054054;28;20028;-79
2022/01/03 00:08:39;;;;;;;115.47;79.68;;;6.20;99.90;;;;;;5054301;28;20082;-79
2022/01/03 00:11:05;;;;;;;122.03;82.22;;;6.20;99.90;;;;;;5054653;28;20036;-79
2022/01/03 00:13:31;;;;;;;110.18;77.13;;;6.20;99.90;;;;;;5054609;28;20029;-76
2022/01/03 00:15:57;;;;;;;137.27;92.78;;;6.20;99.90;;;;;;5053012;28;20037;-77
2022/01/03 00:18:23;;;;;;;133.88;90.43;;;6.10;99.90;;;;;;5052888;28;20033;-77
2022/01/03 00:20:57;;;;;;;120.78;86.30;;;6.10;99.90;;;;;;5054511;28;20518;-78
2022/01/03 00:23:28;;;;;;;131.82;87.18;;;6.10;99.90;;;;;;5053918;28;20025;-78
2022/01/03 00:26:03;;;;;;;120.50;79.32;;;6.10;99.90;;;;;;5054388;28;20479;-78
2022/01/03 00:28:51;;;;;;;106.32;78.85;;;6.10;99.90;;;;;;5052256;28;20427;-78
2022/01/03 00:31:18;;;;;;;100.38;72.07;;;6.10;99.90;;;;;;5052214;28;20499;-79
2022/01/03 00:33:51;;;;;;;113.38;76.18;;;6.10;99.90;;;;;;5053864;28;20100;-78
2022/01/03 00:36:19;;;;;;;117.25;79.28;;;6.10;99.90;;;;;;5053049;28;20529;-78
2022/01/03 00:38:44;;;;;;;142.50;96.50;;;6.00;99.90;;;;;;5053894;28;20036;-79
2022/01/03 00:41:10;;;;;;;148.38;93.07;;;5.90;99.90;;;;;;5052824;28;20033;-79
2022/01/03 00:43:37;;;;;;;125.93;87.57;;;5.80;99.90;;;;;;5053351;28;20033;-79
2022/01/03 00:46:02;;;;;;;121.70;84.50;;;5.90;99.90;;;;;;5052034;28;20059;-79
2022/01/03 00:48:32;;;;;;;124.93;86.68;;;5.90;99.90;;;;;;5053747;28;20029;-80
2022/01/03 00:51:02;;;;;;;133.20;95.15;;;5.90;99.90;;;;;;5052602;28;20531;-79
2022/01/03 00:53:28;;;;;;;137.55;97.95;;;5.80;99.90;;;;;;5053834;28;20029;-79
2022/01/03 00:56:05;;;;;;;134.73;92.75;;;5.90;99.90;;;;;;5052519;28;20131;-79
2022/01/03 00:58:37;;;;;;;145.95;98.90;;;5.80;99.90;;;;;;5035068;28;20391;-78
2022/01/03 01:01:05;;;;;;;146.15;97.00;;;5.90;99.90;;;;;;5052043;28;20025;-79
2022/01/03 01:03:36;;;;;;;137.20;91.57;;;5.90;99.90;;;;;;5052227;28;20037;-79
2022/01/03 01:06:05;;;;;;;130.82;88.80;;;5.90;99.90;;;;;;5052387;28;20434;-80
2022/01/03 01:08:36;;;;;;;135.45;87.00;;;6.00;99.90;;;;;;5051865;28;20037;-80
2022/01/03 01:11:07;;;;;;;125.97;82.78;;;6.00;99.90;;;;;;5052068;28;20115;-80
2022/01/03 01:13:36;;;;;;;122.03;81.32;;;5.90;99.90;;;;;;5051498;28;20047;-80
2022/01/03 01:16:07;;;;;;;114.78;79.80;;;5.90;99.90;;;;;;5052091;28;20394;-79
2022/01/03 01:18:39;;;;;;;120.35;86.55;;;5.90;99.90;;;;;;5052329;28;20407;-80
2022/01/03 01:21:06;;;;;;;126.75;84.88;;;5.90;99.90;;;;;;5051806;28;20037;-79
2022/01/03 01:23:33;;;;;;;114.72;83.15;;;5.90;99.90;;;;;;5051874;28;20040;-79
2022/01/03 01:28:45;;;;;;;118.65;77.97;;;5.90;99.90;;;;;;5051463;28;20032;-79
2022/01/03 01:31:14;;;;;;;108.43;75.38;;;5.80;99.90;;;;;;5051147;28;20029;-78
2022/01/03 01:33:42;;;;;;;118.85;80.22;;;5.90;99.90;;;;;;5051805;28;20041;-79
2022/01/03 01:36:09;;;;;;;108.05;72.32;;;5.80;99.90;;;;;;5051908;28;20025;-79
2022/01/03 01:38:38;;;;;;;103.53;74.35;;;5.80;99.90;;;;;;5051796;28;20383;-79
2022/01/03 01:41:07;;;;;;;128.52;86.10;;;5.80;99.90;;;;;;5051776;28;20507;-79
2022/01/03 01:43:48;;;;;;;127.05;83.38;;;5.60;99.90;;;;;;5051494;28;20041;-79
2022/01/03 01:46:21;;;;;;;124.03;84.22;;;5.60;99.90;;;;;;5035299;28;20115;-79
2022/01/03 01:48:52;;;;;;;116.07;82.95;;;5.50;99.90;;;;;;5051561;28;20047;-78
2022/01/03 01:51:24;;;;;;;128.07;86.72;;;5.60;99.90;;;;;;5051295;28;20029;-79
2022/01/03 01:53:55;;;;;;;152.80;99.13;;;5.60;99.90;;;;;;5051353;28;20044;-77
2022/01/03 01:56:46;;;;;;;146.68;97.32;;;5.60;99.90;;;;;;5051579;28;20025;-79
2022/01/03 01:59:25;;;;;;;141.88;90.53;;;5.60;99.90;;;;;;5051330;28;20375;-78
2022/01/03 02:02:08;;;;;;;132.68;81.95;;;5.60;99.90;;;;;;5050796;28;20033;-79
2022/01/03 02:04:48;;;;;;;181.00;110.40;;;5.60;99.90;;;;;;5051314;28;20037;-78
2022/01/03 02:08:02;;;;;;;162.10;103.68;;;5.50;99.90;;;;;;5035692;28;20041;-79
2022/01/03 02:10:49;;;;;;;134.13;90.32;;;5.50;99.90;;;;;;5034846;28;20699;-80
2022/01/03 02:13:22;;;;;;;160.95;110.90;;;5.40;99.90;;;;;;5034375;28;20072;-79
2022/01/03 02:15:58;;;;;;;167.63;112.70;;;5.40;99.90;;;;;;5034513;28;20037;-79
2022/01/03 02:18:26;;;;;;;153.65;104.97;;;5.30;99.90;;;;;;5034832;28;20029;-79
2022/01/03 02:20:53;;;;;;;149.82;94.88;;;5.30;99.90;;;;;;5034491;28;20048;-81
2022/01/03 02:23:19;;;;;;;135.70;93.25;;;5.30;99.90;;;;;;5050640;28;20403;-80
2022/01/03 02:25:46;;;;;;;131.93;89.80;;;5.30;99.90;;;;;;5051235;28;20121;-80
2022/01/03 02:28:11;;;;;;;158.45;104.40;;;5.40;99.90;;;;;;5051027;28;20047;-81
2022/01/03 02:30:38;;;;;;;130.73;86.30;;;5.40;99.90;;;;;;5051020;28;20636;-79
2022/01/03 02:33:04;;;;;;;118.35;79.03;;;5.40;99.90;;;;;;5050936;28;20094;-78
2022/01/03 02:35:36;;;;;;;132.55;89.22;;;5.40;99.90;;;;;;5051067;28;20028;-79
2022/01/03 02:38:03;;;;;;;123.57;85.10;;;5.50;99.90;;;;;;5050921;28;20041;-78
2022/01/03 02:40:29;;;;;;;123.13;84.88;;;5.40;99.90;;;;;;5052410;28;20029;-77
2022/01/03 02:42:56;;;;;;;124.35;80.75;;;5.40;99.90;;;;;;5055068;28;20128;-79
2022/01/03 02:45:26;;;;;;;120.95;83.30;;;5.50;99.90;;;;;;5055984;28;20040;-78
2022/01/03 02:47:59;;;;;;;134.13;90.40;;;5.40;99.90;;;;;;5054779;28;20068;-79
2022/01/03 02:50:27;;;;;;;119.90;82.53;;;5.30;99.90;;;;;;5054601;28;20407;-79
2022/01/03 02:52:53;;;;;;;119.60;82.82;;;5.30;99.90;;;;;;5055743;28;20091;-79
2022/01/03 02:55:22;;;;;;;117.00;83.93;;;5.40;99.90;;;;;;5054883;28;20033;-79
2022/01/03 02:57:51;;;;;;;117.95;82.32;;;5.40;99.90;;;;;;5054807;28;20036;-79
2022/01/03 03:00:21;;;;;;;143.15;84.78;;;5.30;99.90;;;;;;5054609;28;20021;-78
2022/01/03 03:02:47;;;;;;;114.05;80.82;;;5.40;99.90;;;;;;5055845;28;20438;-80
2022/01/03 03:05:14;;;;;;;121.78;85.35;;;5.40;99.90;;;;;;5053896;28;20423;-80
2022/01/03 03:07:41;;;;;;;110.60;81.20;;;5.30;99.90;;;;;;5054488;28;20068;-80
2022/01/03 03:10:12;;;;;;;114.85;83.43;;;5.30;99.90;;;;;;5054666;28;20040;-80
2022/01/03 03:12:39;;;;;;;123.35;91.97;;;5.30;99.90;;;;;;5054604;28;20037;-80
2022/01/03 03:15:08;;;;;;;117.40;80.40;;;5.30;99.90;;;;;;5055835;28;20086;-79
2022/01/03 03:17:35;;;;;;;108.60;78.63;;;5.10;99.90;;;;;;5054330;28;20033;-80
2022/01/03 03:20:13;;;;;;;112.43;79.82;;;5.10;99.90;;;;;;5055681;28;20072;-79
2022/01/03 03:22:40;;;;;;;112.95;80.07;;;5.00;99.90;;;;;;5054037;28;20036;-79
2022/01/03 03:25:16;;;;;;;94.75;71.53;;;5.00;99.90;;;;;;5054234;28;20032;-79
2022/01/03 03:27:47;;;;;;;112.50;78.40;;;4.90;99.90;;;;;;5054204;28;20063;-80
2022/01/03 03:30:20;;;;;;;116.35;81.88;;;4.90;99.90;;;;;;5054076;28;20057;-79
2022/01/03 03:32:47;;;;;;;118.47;81.88;;;4.90;99.90;;;;;;5053879;28;20063;-79
2022/01/03 03:35:14;;;;;;;122.22;83.93;;;4.90;99.90;;;;;;5053995;28;20584;-80
2022/01/03 03:37:41;;;;;;;106.43;76.53;;;4.90;99.90;;;;;;5053947;28;20484;-79
2022/01/03 03:40:08;;;;;;;104.10;78.13;;;4.90;99.90;;;;;;5055234;28;20036;-79
2022/01/03 03:42:34;;;;;;;106.43;74.97;;;4.90;99.90;;;;;;5053518;28;20084;-79
2022/01/03 03:45:00;;;;;;;104.95;72.88;;;4.80;99.90;;;;;;5053656;28;20048;-80
2022/01/03 03:47:26;;;;;;;92.75;66.95;;;4.80;99.90;;;;;;5055123;28;20017;-80
2022/01/03 03:49:52;;;;;;;88.65;61.97;;;4.90;99.90;;;;;;5053954;28;20029;-79
2022/01/03 03:52:18;;;;;;;87.55;59.40;;;4.90;99.90;;;;;;5054147;28;20059;-80
2022/01/03 03:54:44;;;;;;;87.00;57.67;;;5.00;99.90;;;;;;5053644;28;20411;-79
2022/01/03 03:57:12;;;;;;;78.65;57.15;;;5.00;99.90;;;;;;5052850;28;20116;-78
2022/01/03 03:59:38;;;;;;;81.93;55.50;;;5.10;99.90;;;;;;5053112;28;20400;-80
2022/01/03 04:02:05;;;;;;;86.70;55.90;;;5.00;99.90;;;;;;5054563;28;20379;-79
2022/01/03 04:04:32;;;;;;;81.88;57.55;;;5.00;99.90;;;;;;5053425;28;20398;-79
2022/01/03 04:06:58;;;;;;;93.07;59.67;;;5.10;99.90;;;;;;5054693;28;20380;-76
2022/01/03 04:09:24;;;;;;;67.78;50.58;;;5.10;99.90;;;;;;5053104;28;20040;-79
2022/01/03 04:11:50;;;;;;;82.63;55.38;;;5.10;99.90;;;;;;5053570;28;20037;-79
2022/01/03 04:14:16;;;;;;;70.63;48.20;;;5.10;99.90;;;;;;5053258;28;20036;-80
2022/01/03 04:16:42;;;;;;;65.85;48.33;;;5.20;99.90;;;;;;5054382;28;20112;-80
2022/01/03 04:19:10;;;;;;;64.72;46.03;;;5.30;99.90;;;;;;5036461;28;20037;-78
2022/01/03 04:21:39;;;;;;;60.45;44.28;;;5.30;99.90;;;;;;5054425;28;20029;-80
2022/01/03 04:24:07;;;;;;;61.30;42.17;;;5.20;99.90;;;;;;5052541;28;20033;-79
2022/01/03 04:26:34;;;;;;;64.32;41.80;;;5.30;99.90;;;;;;5054140;28;20413;-79
2022/01/03 04:29:01;;;;;;;59.17;41.05;;;5.30;99.90;;;;;;5052321;28;20407;-78
2022/01/03 04:31:27;;;;;;;64.32;44.00;;;5.30;99.90;;;;;;5052918;28;20021;-79
2022/01/03 04:33:52;;;;;;;64.45;42.67;;;5.30;99.90;;;;;;5054100;28;20033;-79
2022/01/03 04:36:19;;;;;;;67.68;44.85;;;5.30;99.90;;;;;;5052682;28;20480;-80
2022/01/03 04:38:45;;;;;;;63.20;41.05;;;5.30;99.90;;;;;;5052979;28;20024;-80
2022/01/03 04:41:12;;;;;;;64.45;41.83;;;5.30;99.90;;;;;;5052907;28;20036;-79
2022/01/03 04:43:41;;;;;;;99.68;63.10;;;5.30;99.90;;;;;;5052938;28;20033;-80
2022/01/03 04:46:08;;;;;;;103.10;60.17;;;5.30;99.90;;;;;;5052680;28;20384;-79
2022/01/03 04:48:36;;;;;;;173.35;101.93;;;5.20;99.90;;;;;;5052604;28;20117;-80
2022/01/03 04:51:03;;;;;;;123.72;76.65;;;5.20;99.90;;;;;;5053850;28;20367;-80
2022/01/03 04:53:29;;;;;;;119.93;86.68;;;5.20;99.90;;;;;;5052303;28;20040;-78
2022/01/03 04:55:55;;;;;;;266.52;197.98;;;5.20;99.90;;;;;;5053768;28;20151;-79
2022/01/03 04:58:22;;;;;;;256.83;194.23;;;5.10;99.90;;;;;;5051999;28;20025;-79
2022/01/03 05:00:49;;;;;;;253.32;192.98;;;5.10;99.90;;;;;;5052364;28;20120;-79
2022/01/03 05:03:16;;;;;;;268.08;200.60;;;5.00;99.90;;;;;;5051029;28;20510;-79
2022/01/03 05:05:42;;;;;;;220.63;150.82;;;5.00;99.90;;;;;;5052245;28;20045;-80
2022/01/03 05:08:09;;;;;;;242.73;181.68;;;4.90;99.90;;;;;;5051930;28;20741;-80
2022/01/03 05:10:37;;;;;;;259.50;179.25;;;4.90;99.90;;;;;;5052397;28;20021;-80
2022/01/03 05:13:04;;;;;;;260.45;197.60;;;4.90;99.90;;;;;;5052022;28;20446;-80
2022/01/03 05:15:30;;;;;;;254.38;190.63;;;4.90;99.90;;;;;;5052045;28;20035;-79
2022/01/03 05:17:56;;;;;;;313.17;219.40;;;4.90;99.90;;;;;;5051717;28;20032;-79
2022/01/03 05:20:22;;;;;;;338.55;234.88;;;4.90;99.90;;;;;;5035064;28;20037;-79
2022/01/03 05:22:49;;;;;;;233.57;168.90;;;4.80;99.90;;;;;;5051746;28;20131;-79
2022/01/03 05:25:15;;;;;;;162.65;114.18;;;4.80;99.90;;;;;;5053306;28;20064;-81
2022/01/03 05:27:42;;;;;;;162.52;112.93;;;4.70;99.90;;;;;;5051734;28;20029;-80
2022/01/03 05:30:10;;;;;;;158.27;115.40;;;4.80;99.90;;;;;;5043536;28;20025;-80
2022/01/03 05:32:37;;;;;;;167.20;110.93;;;4.80;99.90;;;;;;5034879;28;20037;-80
2022/01/03 05:35:04;;;;;;;175.88;128.90;;;4.80;99.90;;;;;;5034804;28;20033;-79
2022/01/03 05:37:30;;;;;;;184.70;136.73;;;4.80;99.90;;;;;;5035034;28;20059;-80
2022/01/03 05:39:57;;;;;;;193.30;136.10;;;4.80;99.90;;;;;;5052546;28;20083;-83
2022/01/03 05:42:23;;;;;;;159.23;120.80;;;4.70;99.90;;;;;;5052400;28;20029;-83
2022/01/03 05:44:51;;;;;;;182.45;112.43;;;4.70;99.90;;;;;;5051726;28;20092;-79
2022/01/03 05:47:17;;;;;;;161.65;113.25;;;4.60;99.90;;;;;;5051662;28;20525;-82
2022/01/03 05:49:44;;;;;;;151.80;107.97;;;4.60;99.90;;;;;;5052875;28;20110;-80
2022/01/03 05:52:10;;;;;;;120.72;88.38;;;4.60;99.90;;;;;;5052382;28;20037;-80
2022/01/03 05:54:36;;;;;;;101.75;70.28;;;4.50;99.90;;;;;;5050986;28;20032;-72
2022/01/03 05:57:02;;;;;;;78.10;60.45;;;4.40;99.90;;;;;;5051165;28;20045;-77
2022/01/03 05:59:28;;;;;;;93.30;69.60;;;4.40;99.90;;;;;;5034591;28;20400;-81
2022/01/03 06:01:55;;;;;;;85.85;63.13;;;4.50;99.90;;;;;;5052613;28;20021;-74
2022/01/03 06:04:24;;;;;;;91.30;67.32;;;4.60;99.90;;;;;;5051293;28;20039;-77
2022/01/03 06:07:07;;;;;;;108.72;79.20;;;4.60;99.90;;;;;;5050854;28;20132;-77
2022/01/03 06:09:38;;;;;;;98.88;73.68;;;4.60;99.90;;;;;;5051126;28;20028;-77
2022/01/03 06:12:05;;;;;;;206.35;89.00;;;4.60;99.90;;;;;;5051275;28;20432;-79
2022/01/03 06:14:35;;;;;;;114.75;83.70;;;4.50;99.90;;;;;;5050982;28;20483;-77
2022/01/03 06:17:03;;;;;;;111.38;84.00;;;4.50;99.90;;;;;;5050856;28;20041;-76
2022/01/03 06:19:33;;;;;;;98.95;72.72;;;4.40;99.90;;;;;;5051272;28;20040;-77
2022/01/03 06:21:59;;;;;;;134.00;101.97;;;4.30;99.90;;;;;;5050921;28;20040;-77
2022/01/03 06:24:25;;;;;;;139.85;108.63;;;4.20;99.90;;;;;;5034251;28;20204;-76
2022/01/03 06:26:52;;;;;;;231.68;179.02;;;4.20;99.90;;;;;;5051054;28;20369;-79
2022/01/03 06:29:19;;;;;;;121.88;95.40;;;4.10;99.90;;;;;;5050893;28;20025;-78
2022/01/03 06:31:47;;;;;;;127.90;89.05;;;4.20;99.90;;;;;;5050940;28;20033;-78
2022/01/03 06:34:15;;;;;;;136.48;93.85;;;4.30;99.90;;;;;;5050898;28;20090;-79
2022/01/03 06:36:42;;;;;;;147.45;100.82;;;4.40;99.90;;;;;;5050856;28;20025;-79
2022/01/03 06:39:10;;;;;;;139.77;100.03;;;4.40;99.90;;;;;;5051059;28;20025;-79
2022/01/03 06:41:36;;;;;;;111.13;83.68;;;4.50;99.90;;;;;;5034137;28;20124;-80
2022/01/03 06:44:03;;;;;;;67.57;43.60;;;4.50;99.90;;;;;;5050901;28;20059;-83
2022/01/03 06:46:30;;;;;;;69.05;44.70;;;4.70;99.90;;;;;;5050862;28;20025;-77
2022/01/03 06:48:56;;;;;;;62.40;44.10;;;4.80;99.90;;;;;;5050836;28;20048;-81
2022/01/03 06:51:25;;;;;;;71.03;49.70;;;4.90;99.90;;;;;;5050557;28;20526;-77
2022/01/03 06:53:52;;;;;;;81.95;61.42;;;4.90;99.90;;;;;;5033459;28;20380;-80
2022/01/03 06:56:18;;;;;;;90.43;61.03;;;4.90;99.90;;;;;;5050551;28;20032;-82
2022/01/03 06:58:46;;;;;;;146.13;103.70;;;5.00;99.90;;;;;;5050500;28;20478;-81
2022/01/03 07:01:12;;;;;;;144.15;101.00;;;5.00;99.90;;;;;;5050887;28;20032;-81
2022/01/03 07:03:38;;;;;;;124.90;91.07;;;5.00;99.90;;;;;;5050476;28;20040;-81
2022/01/03 07:06:04;;;;;;;125.25;87.72;;;5.10;99.90;;;;;;5051833;28;20107;-81
2022/01/03 07:08:29;;;;;;;105.82;74.40;;;5.10;99.90;;;;;;5052002;28;20475;-81
2022/01/03 07:10:55;;;;;;;89.75;64.28;;;5.10;99.90;;;;;;5051754;28;20024;-81
2022/01/03 07:13:24;;;;;;;88.95;63.45;;;5.20;99.90;;;;;;5051976;28;20025;-78
2022/01/03 07:21:18;;;;;;;86.10;56.78;;;5.40;99.90;;;;;;5051933;28;20498;-83
2022/01/03 07:23:44;;;;;;;76.63;52.40;;;5.40;99.90;;;;;;5052118;28;20029;-80
2022/01/03 07:26:10;;;;;;;59.58;38.42;;;5.50;99.90;;;;;;5052511;28;20037;-79
2022/01/03 07:28:36;;;;;;;58.30;40.30;;;5.60;99.90;;;;;;5055194;28;20025;-80
2022/01/03 07:31:02;;;;;;;57.70;39.50;;;5.60;99.90;;;;;;5053916;28;20048;-79
2022/01/03 07:33:28;;;;;;;99.57;63.42;;;5.70;99.90;;;;;;5055261;28;20025;-80
2022/01/03 07:35:54;;;;;;;136.70;91.60;;;5.70;99.90;;;;;;5055094;28;20383;-80
2022/01/03 07:38:20;;;;;;;137.68;99.57;;;5.60;99.90;;;;;;5055472;28;20033;-75
2022/01/03 07:40:46;;;;;;;139.07;97.38;;;5.60;99.90;;;;;;5055283;28;20108;-80
2022/01/03 07:43:12;;;;;;;151.63;104.20;;;5.60;99.90;;;;;;5054688;28;20530;-79
2022/01/03 07:45:37;;;;;;;142.65;98.45;;;5.70;99.90;;;;;;5055248;28;20108;-78
2022/01/03 07:48:04;;;;;;;145.20;104.32;;;5.70;99.90;;;;;;5054995;28;20087;-79
2022/01/03 07:50:30;;;;;;;153.07;111.25;;;5.80;99.90;;;;;;5055154;28;20053;-78
2022/01/03 07:53:00;;;;;;;165.48;117.75;;;5.90;99.90;;;;;;5054775;28;20053;-80
2022/01/03 07:55:26;;;;;;;161.48;114.43;;;5.90;99.90;;;;;;5054773;28;20058;-80
2022/01/03 07:57:53;;;;;;;169.25;120.75;;;5.90;99.90;;;;;;5055037;28;20017;-79
2022/01/03 08:00:19;;;;;;;142.15;101.22;;;5.90;99.90;;;;;;5054938;28;20036;-81
2022/01/03 08:02:46;;;;;;;148.90;107.03;;;5.80;99.90;;;;;;5054849;28;20072;-79
2022/01/03 08:05:14;;;;;;;136.70;99.20;;;5.80;99.90;;;;;;5054652;28;20033;-78
2022/01/03 08:07:42;;;;;;;159.55;120.00;;;5.90;99.90;;;;;;5053922;28;20392;-79
2022/01/03 08:10:09;;;;;;;188.77;135.00;;;6.00;99.90;;;;;;5065775;28;20532;-80
2022/01/03 08:12:37;;;;;;;202.52;137.68;;;6.00;99.90;;;;;;5073827;28;20074;-81
2022/01/03 08:15:04;;;;;;;197.23;142.07;;;6.20;99.90;;;;;;5061926;28;20033;-80
2022/01/03 08:17:30;;;;;;;187.80;138.23;;;6.40;99.90;;;;;;5074259;28;20036;-81
2022/01/03 08:19:56;;;;;;;194.88;141.55;;;6.50;99.90;;;;;;5076255;28;20080;-82
2022/01/03 08:22:21;;;;;;;196.15;144.80;;;6.60;99.90;;;;;;5073612;28;20028;-83
2022/01/03 08:24:47;;;;;;;184.90;131.50;;;6.70;99.90;;;;;;5080529;28;20040;-82
2022/01/03 08:27:13;;;;;;;175.48;127.85;;;6.80;99.90;;;;;;5080918;28;20033;-81
2022/01/03 08:29:39;;;;;;;161.65;121.28;;;7.00;99.90;;;;;;5073208;28;20056;-80
2022/01/03 08:32:05;;;;;;;158.43;116.20;;;7.10;99.90;;;;;;5053577;28;20026;-81
2022/01/03 08:34:31;;;;;;;154.35;110.65;;;7.30;99.90;;;;;;5054177;28;20051;-81
2022/01/03 08:37:00;;;;;;;132.43;96.45;;;7.40;99.90;;;;;;5054099;28;20365;-79
2022/01/03 08:39:26;;;;;;;123.65;90.47;;;7.50;99.90;;;;;;5034154;28;20491;-79
2022/01/03 08:41:53;;;;;;;124.93;90.43;;;7.50;99.90;;;;;;5034249;28;20052;-78
2022/01/03 08:44:18;;;;;;;129.27;88.72;;;7.60;99.90;;;;;;5034151;28;20033;-79
2022/01/03 08:46:46;;;;;;;109.28;74.45;;;7.60;99.90;;;;;;5033786;28;20384;-79
2022/01/03 08:49:13;;;;;;;117.25;91.57;;;7.70;99.90;;;;;;5033796;28;20451;-77
2022/01/03 08:51:39;;;;;;;134.27;98.50;;;7.70;99.90;;;;;;5033340;28;20042;-79
2022/01/03 08:54:05;;;;;;;128.93;95.10;;;7.80;99.90;;;;;;5033813;28;20065;-78
2022/01/03 08:56:31;;;;;;;129.00;93.90;;;7.90;99.90;;;;;;5042166;28;20075;-79
2022/01/03 08:58:57;;;;;;;124.43;92.25;;;8.00;99.90;;;;;;5051832;28;20025;-79
2022/01/03 09:01:22;;;;;;;147.40;101.20;;;8.10;99.90;;;;;;5053284;28;20029;-80
2022/01/03 09:03:50;;;;;;;143.52;104.32;;;8.30;99.90;;;;;;5052403;28;20087;-79
2022/01/03 09:06:20;;;;;;;121.18;86.63;;;8.50;99.90;;;;;;5052768;28;20096;-79
2022/01/03 09:08:47;;;;;;;122.25;88.78;;;8.60;99.90;;;;;;5052739;28;20545;-78
2022/01/03 09:11:13;;;;;;;108.50;78.35;;;8.60;99.90;;;;;;5053240;28;20021;-79
2022/01/03 09:13:39;;;;;;;103.80;74.13;;;8.70;99.90;;;;;;5053029;28;20472;-79
2022/01/03 09:16:07;;;;;;;125.95;90.07;;;8.90;99.90;;;;;;5053107;28;20025;-78
2022/01/03 09:18:38;;;;;;;132.90;92.75;;;8.90;99.90;;;;;;5053213;28;20083;-78
2022/01/03 09:21:05;;;;;;;121.10;88.03;;;8.90;99.90;;;;;;5052986;28;20032;-78
2022/01/03 09:23:35;;;;;;;104.25;76.10;;;8.80;99.90;;;;;;5052966;28;20045;-78
2022/01/03 09:28:56;;;;;;;90.90;69.72;;;9.00;99.90;;;;;;5052838;28;20029;-78
2022/01/03 09:31:26;;;;;;;83.60;59.63;;;9.00;99.90;;;;;;5053066;28;20483;-78
2022/01/03 09:33:54;;;;;;;74.28;54.78;;;9.10;99.90;;;;;;5052858;28;20103;-78
2022/01/03 09:36:20;;;;;;;68.55;52.08;;;9.20;99.90;;;;;;5051992;28;20033;-78
2022/01/03 09:38:47;;;;;;;76.35;51.65;;;9.20;99.90;;;;;;5051172;28;20107;-79
2022/01/03 09:41:13;;;;;;;77.00;53.08;;;9.40;99.90;;;;;;5051698;28;20056;-78
2022/01/03 09:43:50;;;;;;;78.25;57.92;;;9.40;99.90;;;;;;5052075;28;20095;-79
2022/01/03 09:46:31;;;;;;;78.88;58.20;;;9.40;99.90;;;;;;5051639;28;20049;-79
2022/01/03 09:48:57;;;;;;;86.78;62.80;;;9.60;99.90;;;;;;5050126;28;20033;-79
2022/01/03 09:51:31;;;;;;;77.38;55.10;;;9.80;99.90;;;;;;5051612;28;20048;-78
2022/01/03 09:54:03;;;;;;;78.03;55.47;;;9.80;99.90;;;;;;5051598;28;20468;-79
2022/01/03 09:56:33;;;;;;;70.68;51.22;;;10.00;99.90;;;;;;5051697;28;20033;-79
2022/01/03 09:59:00;;;;;;;67.60;48.55;;;10.00;99.90;;;;;;5051572;28;20032;-76
2022/01/03 10:01:27;;;;;;;59.63;42.03;;;10.00;99.90;;;;;;5050649;28;20071;-78
2022/01/03 10:03:54;;;;;;;49.85;36.28;;;10.00;99.90;;;;;;5051195;28;20550;-79
2022/01/03 10:06:20;;;;;;;50.88;33.58;;;10.00;99.90;;;;;;5049745;28;20124;-78
2022/01/03 10:08:47;;;;;;;52.97;36.45;;;10.00;99.90;;;;;;5051375;28;20032;-79
2022/01/03 10:11:14;;;;;;;64.70;44.13;;;10.00;99.90;;;;;;5051451;28;20052;-78
2022/01/03 10:13:40;;;;;;;71.15;54.70;;;10.00;99.90;;;;;;5051501;28;20037;-78
2022/01/03 10:16:07;;;;;;;80.47;62.58;;;10.10;99.90;;;;;;5051171;28;20043;-76
2022/01/03 10:18:33;;;;;;;59.55;46.42;;;10.30;99.90;;;;;;5051159;28;20033;-79
2022/01/03 10:21:03;;;;;;;60.10;44.08;;;10.40;99.90;;;;;;5032715;28;20167;-78
2022/01/03 10:23:29;;;;;;;52.58;34.47;;;10.60;99.90;;;;;;5050774;28;20076;-78
2022/01/03 10:26:14;;;;;;;41.90;28.20;;;10.70;99.90;;;;;;5050747;28;20022;-78
2022/01/03 10:28:40;;;;;;;41.58;27.55;;;10.70;99.90;;;;;;5050677;28;20068;-78
2022/01/03 10:31:19;;;;;;;37.03;27.25;;;10.80;99.90;;;;;;5051493;28;20052;-78
2022/01/03 10:33:46;;;;;;;43.13;29.55;;;10.80;99.90;;;;;;5050737;28;20036;-77
2022/01/03 10:36:28;;;;;;;51.60;34.80;;;10.80;99.90;;;;;;5051068;28;20025;-77
2022/01/03 10:38:55;;;;;;;52.73;37.23;;;10.80;99.90;;;;;;5050664;28;20029;-78
2022/01/03 10:41:23;;;;;;;48.80;35.65;;;10.80;99.90;;;;;;5050276;28;20028;-77
2022/01/03 10:43:57;;;;;;;46.15;33.17;;;10.70;99.90;;;;;;5050348;28;20594;-78
2022/01/03 10:46:31;;;;;;;41.28;28.50;;;10.70;99.90;;;;;;5050965;28;20033;-77
2022/01/03 10:49:16;;;;;;;33.45;22.60;;;10.70;99.90;;;;;;5051263;28;20120;-77
2022/01/03 10:51:42;;;;;;;32.78;24.80;;;10.60;99.90;;;;;;5051031;28;20057;-77
2022/01/03 10:54:19;;;;;;;41.22;26.25;;;10.60;99.90;;;;;;5051131;28;20044;-75
2022/01/03 10:56:50;;;;;;;41.08;26.92;;;10.70;99.90;;;;;;5050955;28;20032;-77
2022/01/03 10:59:22;;;;;;;41.75;29.35;;;10.70;99.90;;;;;;5051080;28;20113;-77
2022/01/03 11:02:04;;;;;;;55.00;34.37;;;10.80;99.90;;;;;;5051959;28;20496;-78
2022/01/03 11:13:22;;;;;;;63.22;43.38;;;10.80;99.90;;;;;;5055027;28;20069;-77
2022/01/03 11:16:04;;;;;;;61.83;47.92;;;10.90;99.90;;;;;;5053816;28;20029;-77
2022/01/03 11:18:35;;;;;;;60.92;45.40;;;11.00;99.90;;;;;;5054972;28;20037;-78
2022/01/03 11:21:14;;;;;;;67.38;46.80;;;11.10;99.90;;;;;;5053480;28;20040;-77
2022/01/03 11:23:49;;;;;;;63.70;46.20;;;11.20;99.90;;;;;;5054006;28;20072;-78
2022/01/03 11:26:20;;;;;;;62.33;42.70;;;11.30;99.90;;;;;;5054647;28;20116;-78
2022/01/03 11:28:46;;;;;;;57.45;43.55;;;11.40;99.90;;;;;;5054749;28;20037;-78
2022/01/03 11:31:15;;;;;;;61.25;42.20;;;11.40;99.90;;;;;;5054408;28;20020;-76
2022/01/03 11:33:41;;;;;;;59.85;40.10;;;11.50;99.90;;;;;;5053153;28;20100;-76
2022/01/03 11:36:08;;;;;;;57.10;37.50;;;11.60;99.90;;;;;;5053323;28;20017;-76
2022/01/03 11:38:36;;;;;;;46.63;33.85;;;11.60;99.90;;;;;;5053167;28;20051;-77
2022/01/03 11:41:05;;;;;;;43.33;30.15;;;11.50;99.90;;;;;;5054121;28;20086;-77
2022/01/03 11:43:34;;;;;;;46.20;30.75;;;11.50;99.90;;;;;;5054080;28;20452;-77
2022/01/03 11:46:00;;;;;;;44.60;30.70;;;11.40;99.90;;;;;;5051232;28;20043;-78
2022/01/03 11:48:28;;;;;;;41.83;29.15;;;11.30;99.90;;;;;;5053431;28;20116;-71
2022/01/03 11:51:06;;;;;;;41.65;29.85;;;11.30;99.90;;;;;;5053878;28;20021;-76
2022/01/03 11:53:37;;;;;;;50.22;34.63;;;11.30;99.90;;;;;;5054163;28;20045;-77
2022/01/03 11:56:09;;;;;;;48.35;32.42;;;11.30;99.90;;;;;;5063972;28;20029;-77
2022/01/03 11:58:45;;;;;;;44.92;30.98;;;11.20;99.90;;;;;;5073495;28;20032;-77
2022/01/03 12:03:58;;;;;;;48.55;32.58;;;11.20;99.90;;;;;;5074029;28;20506;-77
2022/01/03 12:06:29;;;;;;;52.90;36.15;;;11.20;99.90;;;;;;5074095;28;20017;-77
2022/01/03 12:09:04;;;;;;;55.63;36.67;;;11.40;99.90;;;;;;5073856;28;20403;-77
2022/01/03 12:11:31;;;;;;;53.40;35.75;;;11.60;99.90;;;;;;5073920;28;20061;-77
2022/01/03 12:14:11;;;;;;;48.95;35.17;;;11.80;99.90;;;;;;5073691;28;20028;-77
2022/01/03 12:16:43;;;;;;;48.20;32.63;;;11.90;99.90;;;;;;5068845;28;20025;-76
2022/01/03 12:19:28;;;;;;;42.20;30.20;;;12.00;99.90;;;;;;5053729;28;20056;-75
2022/01/03 12:21:56;;;;;;;49.38;32.33;;;12.20;99.90;;;;;;5052403;28;20369;-75
2022/01/03 12:24:28;;;;;;;44.63;31.02;;;12.30;99.90;;;;;;5052385;28;20439;-74
2022/01/03 12:27:12;;;;;;;36.90;27.05;;;12.20;99.90;;;;;;5053128;28;20021;-72
2022/01/03 12:30:01;;;;;;;44.53;26.38;;;12.20;99.90;;;;;;5053338;28;20060;-74
2022/01/03 12:32:27;;;;;;;34.17;24.08;;;12.20;99.90;;;;;;5045038;28;20037;-76
2022/01/03 12:35:19;;;;;;;42.30;27.33;;;12.10;99.90;;;;;;5052797;28;20097;-75
2022/01/03 12:37:54;;;;;;;43.38;28.83;;;12.00;99.90;;;;;;5053159;28;20032;-75
2022/01/03 12:40:27;;;;;;;44.45;29.38;;;12.00;99.90;;;;;;5055662;28;20514;-74
2022/01/03 12:42:54;;;;;;;41.70;27.90;;;11.90;99.90;;;;;;5062539;28;20414;-74
2022/01/03 12:45:28;;;;;;;41.33;28.25;;;11.80;99.90;;;;;;5072723;28;20376;-74
2022/01/03 12:50:42;;;;;;;42.40;28.27;;;11.80;99.90;;;;;;5072540;28;20052;-71
2022/01/03 12:53:29;;;;;;;44.13;28.38;;;11.80;99.90;;;;;;5070865;28;20041;-75
2022/01/03 12:56:07;;;;;;;44.75;30.85;;;11.90;99.90;;;;;;5055438;28;20068;-73
2022/01/03 12:58:33;;;;;;;38.55;27.20;;;11.80;99.90;;;;;;5052551;28;20111;-73
2022/01/03 13:01:15;;;;;;;40.35;28.20;;;11.80;99.90;;;;;;5052698;28;20467;-75